Time;durP1;ratioP1;P1;durP2;ratioP2;P2;SDS_P1;SDS_P2;PMS_P1;PMS_P2;Temp;Humidity;BMP_temperature;BMP_pressure;BME280_temperature;BME280_humidity;BME280_pressure;Samples;Min_cycle;Max_cycle;Signal;HPM_P1;HPM_P2
2024/02/23 00:01:00;;;;;;;1.30;1.30;;;9.40;61.00;;;;;;4975355;28;20263;-64
2024/02/23 00:03:26;;;;;;;1.07;1.07;;;9.30;61.20;;;;;;4975156;28;20243;-64
2024/02/23 00:05:53;;;;;;;1.10;1.10;;;9.30;60.30;;;;;;4975087;28;20209;-64
2024/02/23 00:08:20;;;;;;;1.30;1.30;;;9.30;60.20;;;;;;4974376;28;20270;-64
2024/02/23 00:10:46;;;;;;;1.20;1.20;;;9.30;59.70;;;;;;4969241;28;20212;-65
2024/02/23 00:13:13;;;;;;;1.80;1.00;;;9.20;61.00;;;;;;4975359;28;20224;-64
2024/02/23 00:15:39;;;;;;;1.30;1.30;;;9.20;61.10;;;;;;4974982;28;20295;-64
2024/02/23 00:18:06;;;;;;;1.30;1.30;;;9.20;60.60;;;;;;4975182;28;20216;-64
2024/02/23 00:20:33;;;;;;;1.10;1.10;;;9.10;60.30;;;;;;4975501;28;20216;-64
2024/02/23 00:22:59;;;;;;;1.20;1.20;;;9.20;60.30;;;;;;4974738;28;20229;-64
2024/02/23 00:25:26;;;;;;;1.00;1.00;;;9.20;59.40;;;;;;4974779;28;20260;-64
2024/02/23 00:27:52;;;;;;;1.10;1.10;;;9.20;60.00;;;;;;4974661;28;20244;-64
2024/02/23 00:30:19;;;;;;;1.37;1.30;;;9.10;58.90;;;;;;4974401;28;20642;-64
2024/02/23 00:32:45;;;;;;;1.37;1.30;;;9.00;59.30;;;;;;4979416;28;20764;-64
2024/02/23 00:35:12;;;;;;;1.20;1.20;;;9.00;59.70;;;;;;4974700;28;20561;-64
2024/02/23 00:37:38;;;;;;;1.00;1.00;;;8.90;58.90;;;;;;4974365;28;20216;-64
2024/02/23 00:40:05;;;;;;;1.47;1.37;;;9.00;58.60;;;;;;4974608;28;20559;-64
2024/02/23 00:42:31;;;;;;;1.20;1.20;;;9.00;58.30;;;;;;4973784;28;20224;-64
2024/02/23 00:44:58;;;;;;;1.27;1.27;;;9.00;58.00;;;;;;4974433;28;20816;-64
2024/02/23 00:47:23;;;;;;;1.30;1.30;;;9.00;58.00;;;;;;4974080;28;20223;-64
2024/02/23 00:49:50;;;;;;;1.30;1.20;;;8.90;57.30;;;;;;4979373;28;20290;-64
2024/02/23 00:52:17;;;;;;;1.33;1.10;;;9.00;58.00;;;;;;4973820;28;20796;-64
2024/02/23 00:54:43;;;;;;;1.13;1.13;;;9.00;58.00;;;;;;4974305;28;20271;-64
2024/02/23 00:57:11;;;;;;;1.17;1.17;;;8.90;58.10;;;;;;4973823;28;20267;-64
2024/02/23 00:59:37;;;;;;;1.20;1.20;;;9.00;58.00;;;;;;4974446;28;20354;-64
2024/02/23 01:02:04;;;;;;;1.20;1.20;;;8.90;57.50;;;;;;4966347;28;20243;-64
2024/02/23 01:04:31;;;;;;;1.00;1.00;;;9.00;58.00;;;;;;4973818;28;20668;-64
2024/02/23 01:06:57;;;;;;;1.20;1.20;;;9.00;57.10;;;;;;4978700;28;20715;-64
2024/02/23 01:09:24;;;;;;;1.40;1.40;;;8.90;58.30;;;;;;4973995;28;20252;-64
2024/02/23 01:11:51;;;;;;;1.10;1.10;;;8.80;57.80;;;;;;4973025;28;20311;-64
2024/02/23 01:14:17;;;;;;;1.00;1.00;;;8.80;57.80;;;;;;4974136;28;20646;-64
2024/02/23 01:16:43;;;;;;;1.20;1.20;;;8.90;57.50;;;;;;4973218;28;20243;-64
2024/02/23 01:19:10;;;;;;;1.40;1.30;;;8.80;58.10;;;;;;4973875;28;20252;-64
2024/02/23 01:21:36;;;;;;;1.20;1.20;;;8.80;57.80;;;;;;4973071;28;20233;-64
2024/02/23 01:24:04;;;;;;;1.30;1.30;;;8.70;57.80;;;;;;4978431;28;20212;-64
2024/02/23 01:26:30;;;;;;;1.27;1.20;;;8.80;57.80;;;;;;4973024;28;20201;-64
2024/02/23 01:28:57;;;;;;;1.10;1.10;;;8.90;57.30;;;;;;4973561;28;20224;-64
2024/02/23 01:31:23;;;;;;;1.20;1.20;;;8.80;56.40;;;;;;4973323;28;20233;-64
2024/02/23 01:33:51;;;;;;;1.10;1.10;;;8.90;56.80;;;;;;4973232;28;20267;-64
2024/02/23 01:36:18;;;;;;;1.17;1.17;;;8.80;57.10;;;;;;4972343;28;20565;-64
2024/02/23 01:38:44;;;;;;;1.27;1.27;;;8.90;57.10;;;;;;4973369;28;20676;-64
2024/02/23 01:41:12;;;;;;;1.17;1.17;;;8.80;56.60;;;;;;4973386;28;20601;-64
2024/02/23 01:43:38;;;;;;;1.20;1.20;;;8.70;55.90;;;;;;4973810;28;20212;-64
2024/02/23 01:46:05;;;;;;;1.10;1.10;;;8.70;55.70;;;;;;4974307;28;20286;-64
2024/02/23 01:48:31;;;;;;;1.27;1.20;;;8.70;56.40;;;;;;4973219;28;20264;-64
2024/02/23 01:50:57;;;;;;;1.20;1.20;;;8.70;56.30;;;;;;4972614;28;20259;-64
2024/02/23 01:53:25;;;;;;;1.20;1.20;;;8.70;56.00;;;;;;4973276;28;20216;-64
2024/02/23 01:55:52;;;;;;;1.17;1.17;;;8.70;55.90;;;;;;4973077;28;20303;-64
2024/02/23 01:58:18;;;;;;;1.20;1.20;;;8.60;56.00;;;;;;4977531;28;20212;-64
2024/02/23 02:00:44;;;;;;;1.10;1.10;;;8.60;55.50;;;;;;4973838;28;20224;-64
2024/02/23 02:03:11;;;;;;;1.00;1.00;;;8.50;56.00;;;;;;4972964;28;20316;-64
2024/02/23 02:05:38;;;;;;;1.10;1.10;;;8.60;56.10;;;;;;4972864;28;20552;-64
2024/02/23 02:08:04;;;;;;;1.20;1.20;;;8.60;55.90;;;;;;4972294;28;20676;-64
2024/02/23 02:10:31;;;;;;;1.10;1.10;;;8.50;55.70;;;;;;4972828;28;20303;-64
2024/02/23 02:12:57;;;;;;;1.17;1.17;;;8.50;56.10;;;;;;4972253;28;20274;-64
2024/02/23 02:15:24;;;;;;;1.20;1.20;;;8.60;56.40;;;;;;4977240;28;20856;-64
2024/02/23 02:17:50;;;;;;;1.20;1.20;;;8.60;56.40;;;;;;4972450;28;20222;-64
2024/02/23 02:20:17;;;;;;;1.10;1.10;;;8.50;56.70;;;;;;4971777;28;20235;-64
2024/02/23 02:22:43;;;;;;;1.10;1.10;;;8.50;56.60;;;;;;4972757;28;20233;-64
2024/02/23 02:25:10;;;;;;;1.20;1.20;;;8.30;56.90;;;;;;4972845;28;20236;-64
2024/02/23 02:27:36;;;;;;;1.30;1.30;;;8.40;57.40;;;;;;4971826;28;20584;-64
2024/02/23 02:30:03;;;;;;;1.10;1.10;;;8.40;57.10;;;;;;4972875;28;20260;-64
2024/02/23 02:32:29;;;;;;;1.20;1.20;;;8.30;55.70;;;;;;4976934;28;20714;-64
2024/02/23 02:34:56;;;;;;;1.30;1.30;;;8.40;55.30;;;;;;4972475;28;20344;-64
2024/02/23 02:37:22;;;;;;;1.30;1.30;;;8.40;55.30;;;;;;4972595;28;20240;-64
2024/02/23 02:39:49;;;;;;;1.20;1.20;;;8.40;55.00;;;;;;4972348;28;20298;-64
2024/02/23 02:42:16;;;;;;;1.10;1.10;;;8.40;55.70;;;;;;4971852;28;20318;-64
2024/02/23 02:44:42;;;;;;;1.20;1.20;;;8.30;55.70;;;;;;4972292;28;20303;-64
2024/02/23 02:47:09;;;;;;;1.20;1.20;;;8.40;56.10;;;;;;4972551;28;20650;-64
2024/02/23 02:49:35;;;;;;;1.20;1.20;;;8.20;57.00;;;;;;4972827;28;20232;-64
2024/02/23 02:52:02;;;;;;;1.20;1.20;;;8.20;57.30;;;;;;4972395;28;20267;-64
2024/02/23 02:54:28;;;;;;;1.20;1.20;;;8.30;57.30;;;;;;4972734;28;20242;-64
2024/02/23 02:56:55;;;;;;;1.30;1.20;;;8.30;56.90;;;;;;4971552;28;20208;-64
2024/02/23 02:59:21;;;;;;;1.30;1.30;;;8.30;57.40;;;;;;4970708;28;20271;-64
2024/02/23 03:01:48;;;;;;;1.30;1.30;;;8.30;56.50;;;;;;4973147;28;20730;-64
2024/02/23 03:04:15;;;;;;;1.27;1.27;;;8.30;57.30;;;;;;4976414;28;20395;-64
2024/02/23 03:06:41;;;;;;;1.20;1.20;;;8.30;57.40;;;;;;4977030;28;20255;-64
2024/02/23 03:09:08;;;;;;;1.30;1.30;;;8.30;56.70;;;;;;4976258;28;20231;-64
2024/02/23 03:11:35;;;;;;;1.30;1.30;;;8.30;57.30;;;;;;4975116;28;20228;-64
2024/02/23 03:14:01;;;;;;;1.20;1.20;;;8.20;57.30;;;;;;4976136;28;20262;-64
2024/02/23 03:16:30;;;;;;;1.40;1.40;;;8.30;57.40;;;;;;4975835;28;20217;-64
2024/02/23 03:18:56;;;;;;;1.23;1.23;;;8.10;57.30;;;;;;4975677;28;20267;-64
2024/02/23 03:21:23;;;;;;;1.57;1.47;;;8.20;57.30;;;;;;4975919;28;20315;-64
2024/02/23 03:23:50;;;;;;;1.30;1.30;;;8.10;57.20;;;;;;4980737;28;20562;-64
2024/02/23 03:26:17;;;;;;;1.10;1.10;;;8.10;56.50;;;;;;4975692;28;20219;-64
2024/02/23 03:28:43;;;;;;;1.40;1.30;;;8.10;56.80;;;;;;4974743;28;20211;-64
2024/02/23 03:31:10;;;;;;;1.30;1.30;;;8.20;55.90;;;;;;4974048;28;20706;-64
2024/02/23 03:33:36;;;;;;;1.23;1.23;;;8.10;56.10;;;;;;4974380;28;20246;-64
2024/02/23 03:36:03;;;;;;;1.10;1.10;;;8.10;55.60;;;;;;4967926;28;20675;-64
2024/02/23 03:38:30;;;;;;;1.10;1.10;;;8.10;56.90;;;;;;4975866;28;20295;-64
2024/02/23 03:40:56;;;;;;;1.30;1.30;;;8.10;55.50;;;;;;4980179;28;20315;-64
2024/02/23 03:43:22;;;;;;;1.30;1.30;;;8.00;55.60;;;;;;4975020;28;20243;-64
2024/02/23 03:45:49;;;;;;;3.40;1.40;;;8.10;55.60;;;;;;4975591;28;20216;-64
2024/02/23 03:48:15;;;;;;;1.63;1.30;;;8.10;56.10;;;;;;4975194;28;20769;-64
2024/02/23 03:50:42;;;;;;;1.23;1.23;;;8.20;56.10;;;;;;4973966;28;20240;-64
2024/02/23 03:53:09;;;;;;;1.20;1.20;;;8.00;56.70;;;;;;4975224;28;20378;-64
2024/02/23 03:55:35;;;;;;;1.40;1.37;;;8.00;57.20;;;;;;4975162;28;20224;-64
2024/02/23 03:58:02;;;;;;;1.30;1.30;;;7.90;58.60;;;;;;4978025;28;20212;-64
2024/02/23 04:00:29;;;;;;;1.20;1.20;;;7.90;59.60;;;;;;4976026;28;20283;-64
2024/02/23 04:02:55;;;;;;;1.30;1.30;;;7.90;59.40;;;;;;4974885;28;20746;-64
2024/02/23 04:05:21;;;;;;;1.23;1.20;;;7.80;59.70;;;;;;4975450;28;20279;-64
2024/02/23 04:07:48;;;;;;;1.30;1.30;;;7.70;60.00;;;;;;4980421;28;20618;-64
2024/02/23 04:10:16;;;;;;;1.43;1.37;;;7.70;60.50;;;;;;4974841;28;20713;-64
2024/02/23 04:12:42;;;;;;;1.23;1.23;;;7.70;59.70;;;;;;4973777;28;20229;-64
2024/02/23 04:15:09;;;;;;;1.53;1.50;;;7.70;60.20;;;;;;4975736;28;20271;-64
2024/02/23 04:17:35;;;;;;;1.40;1.40;;;7.70;60.00;;;;;;4974792;28;20231;-64
2024/02/23 04:20:02;;;;;;;1.47;1.37;;;7.60;60.80;;;;;;4975086;28;20696;-64
2024/02/23 04:22:29;;;;;;;1.30;1.30;;;7.70;60.60;;;;;;4974878;28;20232;-64
2024/02/23 04:24:55;;;;;;;1.43;1.30;;;7.70;60.30;;;;;;4974578;28;20271;-63
2024/02/23 04:27:22;;;;;;;1.50;1.40;;;7.60;60.60;;;;;;4973880;28;20629;-64
2024/02/23 04:29:48;;;;;;;2.60;1.40;;;7.60;61.30;;;;;;4974399;28;20718;-64
2024/02/23 04:32:15;;;;;;;1.40;1.30;;;7.70;61.40;;;;;;4975000;28;20306;-64
2024/02/23 04:34:42;;;;;;;1.33;1.30;;;7.70;60.80;;;;;;4974449;28;20679;-64
2024/02/23 04:37:08;;;;;;;1.20;1.20;;;7.60;61.20;;;;;;4974469;28;20296;-64
2024/02/23 04:39:35;;;;;;;1.30;1.30;;;7.70;61.40;;;;;;4974177;28;20286;-64
2024/02/23 04:42:02;;;;;;;1.30;1.30;;;7.70;59.20;;;;;;4973672;28;20279;-64
2024/02/23 04:44:29;;;;;;;1.40;1.30;;;7.60;59.50;;;;;;4974384;28;20247;-64
2024/02/23 04:46:55;;;;;;;1.20;1.20;;;7.60;59.30;;;;;;4974337;28;20227;-64
2024/02/23 04:49:22;;;;;;;2.33;1.47;;;7.50;58.70;;;;;;4974429;28;20286;-64
2024/02/23 04:51:48;;;;;;;1.30;1.30;;;7.50;58.90;;;;;;4974725;28;20290;-64
2024/02/23 04:54:15;;;;;;;1.53;1.43;;;7.60;58.60;;;;;;4974185;28;20215;-64
2024/02/23 04:56:41;;;;;;;1.43;1.20;;;7.40;58.90;;;;;;4973526;28;20255;-64
2024/02/23 04:59:08;;;;;;;1.10;1.10;;;7.40;59.60;;;;;;4974498;28;20286;-64
2024/02/23 05:01:34;;;;;;;1.70;1.60;;;7.30;60.00;;;;;;4973815;28;20232;-64
2024/02/23 05:04:01;;;;;;;1.30;1.30;;;7.30;59.80;;;;;;4974505;28;20215;-64
2024/02/23 05:06:27;;;;;;;1.60;1.30;;;7.10;59.70;;;;;;4974013;28;20213;-64
2024/02/23 05:08:54;;;;;;;1.40;1.30;;;7.20;60.10;;;;;;4974230;28;20216;-64
2024/02/23 05:11:20;;;;;;;1.23;1.23;;;7.20;60.90;;;;;;4973337;28;20236;-64
2024/02/23 05:13:47;;;;;;;1.43;1.43;;;7.10;60.60;;;;;;4974067;28;20211;-64
2024/02/23 05:16:14;;;;;;;1.40;1.40;;;7.00;61.40;;;;;;4972962;28;20238;-64
2024/02/23 05:18:40;;;;;;;1.20;1.20;;;7.10;60.90;;;;;;4974309;28;20220;-64
2024/02/23 05:21:07;;;;;;;1.33;1.33;;;7.10;61.80;;;;;;4975084;28;20568;-64
2024/02/23 05:23:33;;;;;;;1.30;1.30;;;7.10;60.90;;;;;;4974414;28;20219;-64
2024/02/23 05:26:00;;;;;;;1.30;1.23;;;7.10;61.00;;;;;;4972995;28;20212;-64
2024/02/23 05:28:27;;;;;;;1.20;1.20;;;7.10;62.00;;;;;;4975625;28;20262;-64
2024/02/23 05:30:54;;;;;;;1.30;1.30;;;7.10;61.40;;;;;;4974424;28;20290;-64
2024/02/23 05:33:21;;;;;;;1.73;1.20;;;7.20;60.90;;;;;;4973311;28;20215;-64
2024/02/23 05:35:48;;;;;;;1.40;1.40;;;7.20;60.90;;;;;;4973252;28;20215;-64
2024/02/23 05:38:15;;;;;;;1.57;1.53;;;7.20;61.50;;;;;;4974044;28;20254;-64
2024/02/23 05:40:41;;;;;;;1.93;1.63;;;7.10;60.90;;;;;;4971756;28;20232;-64
2024/02/23 05:43:08;;;;;;;1.10;1.10;;;7.10;61.30;;;;;;4973891;28;20282;-64
2024/02/23 05:45:35;;;;;;;1.30;1.30;;;7.10;61.80;;;;;;4974296;28;20220;-64
2024/02/23 05:48:02;;;;;;;1.47;1.23;;;7.20;61.40;;;;;;4973383;28;20208;-64
2024/02/23 05:50:28;;;;;;;1.37;1.37;;;7.20;60.90;;;;;;4973495;28;20239;-64
2024/02/23 05:52:54;;;;;;;1.50;1.40;;;7.10;60.90;;;;;;4973079;28;20291;-64
2024/02/23 05:55:21;;;;;;;1.70;1.60;;;7.10;61.10;;;;;;4972291;28;20262;-64
2024/02/23 05:57:48;;;;;;;1.40;1.40;;;7.10;61.10;;;;;;4973220;28;20216;-64
2024/02/23 06:00:14;;;;;;;1.60;1.50;;;7.00;61.00;;;;;;4972465;28;20208;-64
2024/02/23 06:02:41;;;;;;;1.30;1.30;;;7.00;61.20;;;;;;4972660;28;20239;-64
2024/02/23 06:05:07;;;;;;;1.73;1.63;;;7.20;61.30;;;;;;4977515;28;20254;-64
2024/02/23 06:07:34;;;;;;;1.90;1.80;;;7.10;61.90;;;;;;4972778;28;20306;-64
2024/02/23 06:10:01;;;;;;;1.60;1.50;;;7.10;62.20;;;;;;4972825;28;20235;-63
2024/02/23 06:12:27;;;;;;;1.70;1.60;;;7.10;60.90;;;;;;4975958;28;20238;-64
2024/02/23 06:14:55;;;;;;;1.50;1.40;;;7.20;60.90;;;;;;4974674;28;20299;-64
2024/02/23 06:17:22;;;;;;;1.90;1.80;;;7.20;60.00;;;;;;4972464;28;20230;-64
2024/02/23 06:19:49;;;;;;;1.43;1.43;;;7.20;60.00;;;;;;4972863;28;20244;-64
2024/02/23 06:22:20;;;;;;;1.80;1.70;;;7.10;60.40;;;;;;4973305;28;20282;-64
2024/02/23 06:24:47;;;;;;;2.20;1.73;;;7.10;60.30;;;;;;4972847;28;20215;-64
2024/02/23 06:27:13;;;;;;;1.90;1.50;;;7.00;60.60;;;;;;4969808;28;20298;-64
2024/02/23 06:29:40;;;;;;;2.10;1.90;;;7.10;60.10;;;;;;4976960;28;20281;-64
2024/02/23 06:32:07;;;;;;;1.67;1.57;;;7.20;60.00;;;;;;4973087;28;20632;-64
2024/02/23 06:34:33;;;;;;;1.60;1.50;;;7.20;58.50;;;;;;4972838;28;20510;-65
2024/02/23 06:37:00;;;;;;;1.70;1.60;;;7.10;57.80;;;;;;4972595;28;20222;-64
2024/02/23 06:39:26;;;;;;;1.50;1.50;;;7.20;58.50;;;;;;4972496;28;20751;-64
2024/02/23 06:41:53;;;;;;;1.60;1.50;;;7.10;58.00;;;;;;4971800;28;20291;-64
2024/02/23 06:44:19;;;;;;;2.20;1.47;;;7.10;57.60;;;;;;4972107;28;20240;-64
2024/02/23 06:46:46;;;;;;;1.67;1.57;;;7.20;57.70;;;;;;4973596;28;20692;-64
2024/02/23 06:49:13;;;;;;;2.00;1.50;;;7.20;57.30;;;;;;4972566;28;20211;-64
2024/02/23 06:51:40;;;;;;;1.50;1.50;;;7.20;57.40;;;;;;4971835;28;20283;-64
2024/02/23 06:54:08;;;;;;;1.70;1.70;;;7.20;56.50;;;;;;4972265;28;20626;-64
2024/02/23 06:56:34;;;;;;;1.60;1.50;;;7.20;56.40;;;;;;4970916;28;20208;-64
2024/02/23 06:59:01;;;;;;;1.47;1.37;;;7.10;56.50;;;;;;4971353;28;20208;-64
2024/02/23 07:01:28;;;;;;;1.70;1.60;;;7.30;56.20;;;;;;4976100;28;20356;-64
2024/02/23 07:03:54;;;;;;;1.53;1.50;;;7.20;55.70;;;;;;4978214;28;20225;-64
2024/02/23 07:06:21;;;;;;;1.53;1.47;;;7.20;56.50;;;;;;4972674;28;20223;-64
2024/02/23 07:08:47;;;;;;;1.60;1.50;;;7.10;56.20;;;;;;4972969;28;20229;-64
2024/02/23 07:11:14;;;;;;;2.00;1.43;;;7.10;56.30;;;;;;4971449;28;20231;-64
2024/02/23 07:13:40;;;;;;;1.80;1.70;;;7.10;55.50;;;;;;4972472;28;20220;-64
2024/02/23 07:16:07;;;;;;;2.60;1.57;;;7.10;56.00;;;;;;4973095;28;20752;-64
2024/02/23 07:18:33;;;;;;;1.63;1.53;;;7.20;56.10;;;;;;4972562;28;20270;-63
2024/02/23 07:21:01;;;;;;;1.60;1.50;;;7.20;55.90;;;;;;4977237;28;20251;-64
2024/02/23 07:23:28;;;;;;;2.00;1.60;;;7.20;55.60;;;;;;4971597;28;20215;-64
2024/02/23 07:25:54;;;;;;;1.87;1.50;;;7.30;56.00;;;;;;4971880;28;20212;-64
2024/02/23 07:28:22;;;;;;;1.63;1.53;;;7.20;55.60;;;;;;4971949;28;20594;-64
2024/02/23 07:30:49;;;;;;;1.43;1.33;;;7.20;56.00;;;;;;4972170;28;20279;-64
2024/02/23 07:33:15;;;;;;;1.60;1.50;;;7.30;55.00;;;;;;4972092;28;20220;-64
2024/02/23 07:35:42;;;;;;;1.73;1.50;;;7.20;54.90;;;;;;4971945;28;20208;-64
2024/02/23 07:38:09;;;;;;;1.60;1.50;;;7.20;54.80;;;;;;4977348;28;20215;-64
2024/02/23 07:40:35;;;;;;;1.63;1.43;;;7.20;54.70;;;;;;4971356;28;20212;-64
2024/02/23 07:43:02;;;;;;;2.10;1.40;;;7.20;54.00;;;;;;4971435;28;20230;-64
2024/02/23 07:45:28;;;;;;;1.60;1.50;;;7.10;54.30;;;;;;4972532;28;20220;-64
2024/02/23 07:47:55;;;;;;;1.50;1.50;;;7.20;54.20;;;;;;4973386;28;20570;-64
2024/02/23 07:50:21;;;;;;;3.07;1.63;;;7.10;54.70;;;;;;4975691;28;20232;-64
2024/02/23 07:52:47;;;;;;;1.70;1.60;;;7.20;53.70;;;;;;4975244;28;20231;-64
2024/02/23 07:55:13;;;;;;;1.70;1.60;;;7.10;53.80;;;;;;4975205;28;20251;-64
2024/02/23 07:57:40;;;;;;;1.90;1.80;;;7.10;53.30;;;;;;4975476;28;20318;-64
2024/02/23 08:00:07;;;;;;;2.23;1.47;;;7.30;53.50;;;;;;4978446;28;20668;-64
2024/02/23 08:02:33;;;;;;;2.30;1.70;;;7.40;52.80;;;;;;4973941;28;20323;-64
2024/02/23 08:05:00;;;;;;;2.03;1.70;;;7.40;53.10;;;;;;4975776;28;20216;-64
2024/02/23 08:07:28;;;;;;;2.17;1.57;;;7.30;53.00;;;;;;4975363;28;20223;-64
2024/02/23 08:09:54;;;;;;;1.70;1.60;;;7.40;53.90;;;;;;4975226;28;20217;-64
2024/02/23 08:12:21;;;;;;;2.93;1.60;;;7.50;53.90;;;;;;4976426;28;20227;-64
2024/02/23 08:14:49;;;;;;;1.60;1.50;;;7.50;52.40;;;;;;4975384;28;20267;-64
2024/02/23 08:17:15;;;;;;;1.67;1.57;;;7.40;52.60;;;;;;4974747;28;20432;-65
2024/02/23 08:19:42;;;;;;;1.70;1.60;;;7.40;52.40;;;;;;4975156;28;20279;-64
2024/02/23 08:22:09;;;;;;;1.37;1.30;;;7.50;51.40;;;;;;4975087;28;20243;-64
2024/02/23 08:24:35;;;;;;;1.63;1.40;;;7.40;52.30;;;;;;4975292;28;20251;-64
2024/02/23 08:27:02;;;;;;;1.57;1.50;;;7.50;52.20;;;;;;4973963;28;20212;-64
2024/02/23 08:29:29;;;;;;;1.50;1.40;;;7.50;50.70;;;;;;4974456;28;20207;-64
2024/02/23 08:31:55;;;;;;;2.33;1.53;;;7.50;50.90;;;;;;4974916;28;20669;-64
2024/02/23 08:34:22;;;;;;;1.80;1.70;;;7.40;50.60;;;;;;4976014;28;20209;-64
2024/02/23 08:36:49;;;;;;;2.43;1.40;;;7.50;51.00;;;;;;4974846;28;20216;-64
2024/02/23 08:39:15;;;;;;;3.23;1.70;;;7.60;50.60;;;;;;4974759;28;20259;-64
2024/02/23 08:41:42;;;;;;;3.63;1.80;;;7.50;51.80;;;;;;4974736;28;20597;-64
2024/02/23 08:44:08;;;;;;;1.53;1.50;;;7.70;51.10;;;;;;4974882;28;20215;-64
2024/02/23 08:46:35;;;;;;;1.90;1.80;;;7.60;51.00;;;;;;4974225;28;20212;-64
2024/02/23 08:49:01;;;;;;;1.70;1.60;;;7.60;51.80;;;;;;4974477;28;20238;-64
2024/02/23 08:51:28;;;;;;;2.50;1.80;;;7.60;52.10;;;;;;4974111;28;20622;-64
2024/02/23 08:53:55;;;;;;;2.10;1.67;;;7.70;51.20;;;;;;4975279;28;20270;-64
2024/02/23 08:56:21;;;;;;;1.90;1.43;;;7.60;50.20;;;;;;4975545;28;20310;-64
2024/02/23 08:58:48;;;;;;;1.90;1.70;;;7.70;50.00;;;;;;4980651;28;20290;-64
2024/02/23 09:01:15;;;;;;;1.70;1.60;;;7.50;50.50;;;;;;4973587;28;20585;-64
2024/02/23 09:03:42;;;;;;;1.57;1.47;;;7.60;50.70;;;;;;4979302;28;20682;-64
2024/02/23 09:06:08;;;;;;;2.03;1.70;;;7.60;50.60;;;;;;4974409;28;20216;-64
2024/02/23 09:08:35;;;;;;;2.77;1.90;;;7.70;51.70;;;;;;4974516;28;20214;-64
2024/02/23 09:11:01;;;;;;;2.00;1.80;;;7.60;51.80;;;;;;4974092;28;20239;-64
2024/02/23 09:13:29;;;;;;;1.80;1.70;;;7.70;51.70;;;;;;4973858;28;20483;-64
2024/02/23 09:15:56;;;;;;;1.90;1.80;;;7.70;51.20;;;;;;4973985;28;20558;-64
2024/02/23 09:18:22;;;;;;;1.70;1.50;;;7.60;51.40;;;;;;4971629;28;20306;-64
2024/02/23 09:20:49;;;;;;;5.43;2.30;;;7.50;51.60;;;;;;4979172;28;20266;-64
2024/02/23 09:23:15;;;;;;;1.93;1.83;;;7.60;52.00;;;;;;4973826;28;20262;-64
2024/02/23 09:25:42;;;;;;;2.77;2.27;;;7.60;51.60;;;;;;4974312;28;20270;-64
2024/02/23 09:28:11;;;;;;;1.80;1.70;;;7.50;50.90;;;;;;4973047;28;20213;-64
2024/02/23 09:30:37;;;;;;;3.57;1.97;;;7.40;51.60;;;;;;4973394;28;20283;-64
2024/02/23 09:33:04;;;;;;;2.23;1.80;;;7.50;51.90;;;;;;4973670;28;20282;-64
2024/02/23 09:35:30;;;;;;;1.90;1.80;;;7.50;51.20;;;;;;4973349;28;20219;-64
2024/02/23 09:37:57;;;;;;;1.90;1.80;;;7.60;51.10;;;;;;4978638;28;20231;-64
2024/02/23 09:40:23;;;;;;;3.13;1.77;;;7.50;51.30;;;;;;4973746;28;20566;-64
2024/02/23 09:42:50;;;;;;;2.47;1.70;;;7.60;50.80;;;;;;4972714;28;20225;-63
2024/02/23 09:45:17;;;;;;;2.73;1.97;;;7.60;50.20;;;;;;4973410;28;20271;-64
2024/02/23 09:47:44;;;;;;;1.90;1.80;;;7.50;50.50;;;;;;4973812;28;20657;-64
2024/02/23 09:50:10;;;;;;;2.50;1.50;;;7.50;50.70;;;;;;4973393;28;20263;-64
2024/02/23 09:52:37;;;;;;;1.80;1.70;;;7.50;51.20;;;;;;4973180;28;20320;-64
2024/02/23 09:55:03;;;;;;;1.70;1.60;;;7.50;51.80;;;;;;4973632;28;20215;-64
2024/02/23 09:57:30;;;;;;;1.93;1.70;;;7.50;51.80;;;;;;4973049;28;20390;-64
2024/02/23 09:59:56;;;;;;;3.03;1.80;;;7.50;51.90;;;;;;4973651;28;20216;-64
2024/02/23 10:02:23;;;;;;;1.97;1.60;;;7.60;51.10;;;;;;4972955;28;20236;-64
2024/02/23 10:04:50;;;;;;;1.97;1.60;;;7.50;51.10;;;;;;4973412;28;20216;-64
2024/02/23 10:07:17;;;;;;;2.03;1.80;;;7.50;51.00;;;;;;4973275;28;20281;-64
2024/02/23 10:09:43;;;;;;;1.50;1.40;;;7.50;51.00;;;;;;4972798;28;20213;-64
2024/02/23 10:12:10;;;;;;;2.30;1.60;;;7.60;50.80;;;;;;4972367;28;20298;-64
2024/02/23 10:14:36;;;;;;;1.80;1.70;;;7.50;50.50;;;;;;4973038;28;20216;-64
2024/02/23 10:17:03;;;;;;;1.60;1.50;;;7.60;50.00;;;;;;4972800;28;20271;-64
2024/02/23 10:19:29;;;;;;;2.13;1.63;;;7.60;49.50;;;;;;4973155;28;20218;-64
2024/02/23 10:21:56;;;;;;;1.90;1.80;;;7.50;50.00;;;;;;4973538;28;20326;-64
2024/02/23 10:24:22;;;;;;;2.07;1.60;;;7.50;48.90;;;;;;4972698;28;20215;-64
2024/02/23 10:26:49;;;;;;;2.60;1.67;;;7.50;48.80;;;;;;4972375;28;20220;-64
2024/02/23 10:29:15;;;;;;;1.37;1.37;;;7.50;47.60;;;;;;4977838;28;20267;-64
2024/02/23 10:31:42;;;;;;;1.30;1.20;;;7.40;47.80;;;;;;4972798;28;20743;-64
2024/02/23 10:34:11;;;;;;;2.03;1.50;;;7.30;48.40;;;;;;4972655;28;20282;-64
2024/02/23 10:36:38;;;;;;;1.50;1.40;;;7.10;48.40;;;;;;4972756;28;20825;-64
2024/02/23 10:39:05;;;;;;;1.80;1.70;;;7.30;48.90;;;;;;4972653;28;20225;-64
2024/02/23 10:41:32;;;;;;;2.40;1.60;;;7.50;49.00;;;;;;4972378;28;20302;-64
2024/02/23 10:43:59;;;;;;;1.60;1.50;;;7.50;48.00;;;;;;4971376;28;20582;-64
2024/02/23 10:46:26;;;;;;;1.70;1.60;;;7.40;47.80;;;;;;4972625;28;20215;-64
2024/02/23 10:48:52;;;;;;;1.80;1.60;;;7.30;46.90;;;;;;4972704;28;20223;-64
2024/02/23 10:51:19;;;;;;;2.33;1.83;;;7.30;47.00;;;;;;4972279;28;20244;-64
2024/02/23 10:53:46;;;;;;;1.90;1.80;;;7.40;48.70;;;;;;4972580;28;20215;-64
2024/02/23 10:56:13;;;;;;;1.80;1.70;;;7.30;49.30;;;;;;4972624;28;20211;-64
2024/02/23 10:58:39;;;;;;;1.70;1.60;;;7.40;50.20;;;;;;4971374;28;20224;-64
2024/02/23 11:01:06;;;;;;;1.73;1.63;;;7.60;49.60;;;;;;4973124;28;20211;-64
2024/02/23 11:03:32;;;;;;;2.40;1.67;;;7.40;49.60;;;;;;4976422;28;20756;-64
2024/02/23 11:05:59;;;;;;;2.50;1.80;;;7.40;49.60;;;;;;4972413;28;20304;-64
2024/02/23 11:08:25;;;;;;;1.90;1.80;;;7.30;48.60;;;;;;4972683;28;20242;-64
2024/02/23 11:10:52;;;;;;;1.90;1.80;;;7.30;48.80;;;;;;4973306;28;20221;-64
2024/02/23 11:13:19;;;;;;;1.80;1.70;;;7.30;49.80;;;;;;4973559;28;20251;-64
2024/02/23 11:15:45;;;;;;;1.67;1.50;;;7.20;50.30;;;;;;4974382;28;20644;-64
2024/02/23 11:18:12;;;;;;;2.80;1.67;;;7.20;50.90;;;;;;4978818;28;20223;-64
2024/02/23 11:20:38;;;;;;;1.50;1.40;;;7.30;50.70;;;;;;4975530;28;20271;-64
2024/02/23 11:23:05;;;;;;;1.73;1.63;;;7.40;49.60;;;;;;4973546;28;20240;-64
2024/02/23 11:25:34;;;;;;;2.10;1.67;;;7.30;49.10;;;;;;4975485;28;20212;-64
2024/02/23 11:28:00;;;;;;;1.60;1.50;;;7.30;49.70;;;;;;4975772;28;20232;-64
2024/02/23 11:30:27;;;;;;;2.07;1.87;;;7.40;49.70;;;;;;4975917;28;20254;-64
2024/02/23 11:32:54;;;;;;;1.60;1.50;;;7.50;49.20;;;;;;4975744;28;20302;-64
2024/02/23 11:35:21;;;;;;;1.67;1.57;;;7.50;48.80;;;;;;4978472;28;20219;-64
2024/02/23 11:37:47;;;;;;;1.60;1.50;;;7.30;48.30;;;;;;4977667;28;20235;-64
2024/02/23 11:40:14;;;;;;;1.70;1.60;;;7.10;49.50;;;;;;4974764;28;20328;-64
2024/02/23 11:42:41;;;;;;;1.50;1.50;;;7.10;48.80;;;;;;4975015;28;20223;-64
2024/02/23 11:45:07;;;;;;;1.90;1.80;;;7.10;48.80;;;;;;4975601;28;20679;-64
2024/02/23 11:47:34;;;;;;;2.60;1.40;;;7.30;48.20;;;;;;4975538;28;20271;-64
2024/02/23 11:50:00;;;;;;;3.43;1.57;;;7.40;48.80;;;;;;4975052;28;20687;-64
2024/02/23 11:52:27;;;;;;;1.47;1.37;;;7.10;48.60;;;;;;4978369;28;20266;-64
2024/02/23 11:54:55;;;;;;;1.50;1.40;;;7.30;47.80;;;;;;4975583;28;20258;-64
2024/02/23 11:57:22;;;;;;;1.43;1.43;;;7.30;47.80;;;;;;4974492;28;20232;-64
2024/02/23 11:59:48;;;;;;;1.63;1.53;;;7.20;48.50;;;;;;4975240;28;20223;-64
2024/02/23 12:02:15;;;;;;;1.70;1.60;;;7.30;49.10;;;;;;4975147;28;20232;-64
2024/02/23 12:04:41;;;;;;;2.10;1.90;;;7.30;49.60;;;;;;4974302;28;20282;-64
2024/02/23 12:07:08;;;;;;;1.63;1.53;;;7.10;48.80;;;;;;4975056;28;20642;-64
2024/02/23 12:09:34;;;;;;;2.40;1.40;;;6.90;47.40;;;;;;4975718;28;20278;-64
2024/02/23 12:12:01;;;;;;;1.60;1.50;;;7.00;47.50;;;;;;4974763;28;20239;-64
2024/02/23 12:14:28;;;;;;;1.93;1.40;;;7.00;47.50;;;;;;4974745;28;20212;-64
2024/02/23 12:16:54;;;;;;;1.67;1.40;;;7.00;47.60;;;;;;4975482;28;20257;-64
2024/02/23 12:19:21;;;;;;;1.50;1.40;;;6.90;47.90;;;;;;4974759;28;20215;-64
2024/02/23 12:21:47;;;;;;;1.40;1.30;;;6.90;48.00;;;;;;4973292;28;20286;-64
2024/02/23 12:24:14;;;;;;;1.53;1.47;;;6.70;48.60;;;;;;4974275;28;20753;-64
2024/02/23 12:26:41;;;;;;;1.70;1.47;;;6.90;48.20;;;;;;4980400;28;20285;-64
2024/02/23 12:29:07;;;;;;;1.30;1.20;;;6.70;48.90;;;;;;4974154;28;20258;-64
2024/02/23 12:31:34;;;;;;;1.63;1.50;;;6.50;49.70;;;;;;4974880;28;20307;-64
2024/02/23 12:34:01;;;;;;;2.13;1.70;;;6.70;48.70;;;;;;4975036;28;20460;-63
2024/02/23 12:36:27;;;;;;;1.40;1.40;;;6.60;49.10;;;;;;4974924;28;20215;-63
2024/02/23 12:38:54;;;;;;;1.60;1.50;;;6.60;49.50;;;;;;4974835;28;20366;-64
2024/02/23 12:41:20;;;;;;;1.60;1.50;;;6.80;49.40;;;;;;4974459;28;20718;-64
2024/02/23 12:43:47;;;;;;;1.40;1.40;;;6.90;48.60;;;;;;4979151;28;20206;-65
2024/02/23 12:46:14;;;;;;;2.03;1.40;;;6.80;48.80;;;;;;4974662;28;20215;-65
2024/02/23 12:48:40;;;;;;;2.63;1.40;;;6.80;48.20;;;;;;4974551;28;20655;-65
2024/02/23 12:51:07;;;;;;;1.87;1.50;;;6.60;48.70;;;;;;4974042;28;20690;-63
2024/02/23 12:53:34;;;;;;;1.33;1.33;;;6.70;47.70;;;;;;4974301;28;20270;-63